Willimantic, CT

11:30 AM EDT on September 16, 2014 (GMT -0400)
Lewiston Acres | Change Station
CLOSE
Current Station
Personal Weather Station
Location: Willimantic, CT
Elevation: 384 ft
Nearby Weather Stations

Elev 384 ft 41.72 °N, 72.21 °W | Updated 1 minute ago

Rain
Rain Mist
56.3 °F
Feels Like 56.3 °F
N
0.0
Wind Variable Wind from South

Today
High -- | Low -- °F
--% Chance of Precip.
Yesterday
High -- | Low -- °F
Precip. -- in
6:30 AM 6:56 PM
Last Quarter, 45% visible
Pressure 30.04 in
Visibility 4.0 miles
Clouds Mostly Cloudy 2800 ft
Overcast 4200 ft
Dew Point 52 °F
Humidity 87%
Rainfall 0.02 in
Snow Depth Not available.
UV 2 out of 12
Pollen 1.40 out of 12
Ozone Good
Flu Activity Not available.
METAR KIJD 161452Z AUTO 00000KT 4SM RA BR BKN028 OVC042 13/12 A3004 RMK AO2 SLP171 P0002 60002 T01330117 50002

More Conditions Fewer Conditions

Pressure 30.04 in
Visibility 4.0 miles
Clouds Mostly Cloudy 2800 ft
Overcast 4200 ft
Dew Point 52 °F
Humidity 87%
Rainfall 0.02 in
Snow Depth Not available.
UV 2 out of 12
Pollen 1.40 out of 12
Ozone Good
Flu Activity Not available.
METAR KIJD 161452Z AUTO 00000KT 4SM RA BR BKN028 OVC042 13/12 A3004 RMK AO2 SLP171 P0002 60002 T01330117 50002

More Conditions Fewer Conditions

10-Day Weather Forecast

Almanac

Astronomy

Sep. 16, 2014 Rise Set
Actual Time 6:30 AM EDT 6:56 PM EDT
Civil Twilight 6:02 AM EDT 7:24 PM EDT
Nautical Twilight 5:29 AM EDT 7:57 PM EDT
Astronomical Twilight 4:55 AM EDT 8:30 PM EDT
Moon No Moon Rise 2:21 PM EDT
Length of Visible Light 13h 22m
Length of Day
12h 26m
Tomorrow will be 2m 46s shorter.
Last Quarter, 45% of the Moon is Illuminated
Today
Last Quarter
Sep 24
New
Oct 1
First Quarter
Oct 8
Full
Oct 15
Last Quarter

Today's Extremes

State Highs State Lows

Community

WunderPhotos

Upload Photos

1,753,810 photos uploaded!

Nearby

Air Quality

  Air Quality AQ Index Pollutant
Yesterday Good
OZONE
Current Good
OZONE
Tuesday Good
OZONE
Tuesday Good
PM2.5

Snow Depth

Station Depth Elevation
No new snow has been reported.

Earthquake Activity

City Distance Mag. Time & Date
No recent earthquake activity has been reported nearby.
Minimum magnitude displayed is 2.5.

Coastal Water Temperatures

Place Temperature
New London, CT 68.0 °F
Newport, RI 66.9 °F
Quonset Point, RI 69.1 °F
Conimicut Light, RI 69.1 °F
Providence, RI 69.1 °F

Nearby Weather Stations